sensor_id;sensor_type;location;lat;lon;timestamp;pressure;altitude;pressure_sealevel;temperature;humidity
78890;BME280;68279;48.964;14.502;2024-02-21T00:02:04;97873.53;;;5.06;81.54
78890;BME280;68279;48.964;14.502;2024-02-21T00:04:30;97869.91;;;5.00;82.12
78890;BME280;68279;48.964;14.502;2024-02-21T00:06:55;97862.00;;;4.82;83.41
78890;BME280;68279;48.964;14.502;2024-02-21T00:09:21;97858.47;;;4.70;84.35
78890;BME280;68279;48.964;14.502;2024-02-21T00:11:46;97851.06;;;4.60;84.82
78890;BME280;68279;48.964;14.502;2024-02-21T00:14:13;97851.69;;;4.55;85.03
78890;BME280;68279;48.964;14.502;2024-02-21T00:16:38;97854.00;;;4.70;83.87
78890;BME280;68279;48.964;14.502;2024-02-21T00:19:04;97845.31;;;4.63;84.08
78890;BME280;68279;48.964;14.502;2024-02-21T00:21:30;97844.78;;;4.54;84.27
78890;BME280;68279;48.964;14.502;2024-02-21T00:23:55;97850.31;;;4.53;84.12
78890;BME280;68279;48.964;14.502;2024-02-21T00:26:21;97847.78;;;4.58;83.73
78890;BME280;68279;48.964;14.502;2024-02-21T00:28:46;97849.63;;;4.39;84.59
78890;BME280;68279;48.964;14.502;2024-02-21T00:31:12;97846.13;;;4.45;84.38
78890;BME280;68279;48.964;14.502;2024-02-21T00:33:38;97843.88;;;4.24;85.33
78890;BME280;68279;48.964;14.502;2024-02-21T00:36:04;97848.97;;;4.25;85.53
78890;BME280;68279;48.964;14.502;2024-02-21T00:38:29;97836.88;;;3.93;86.29
78890;BME280;68279;48.964;14.502;2024-02-21T00:40:55;97839.75;;;3.66;87.89
78890;BME280;68279;48.964;14.502;2024-02-21T00:43:21;97837.34;;;3.58;88.75
78890;BME280;68279;48.964;14.502;2024-02-21T00:45:49;97836.50;;;3.64;88.62
78890;BME280;68279;48.964;14.502;2024-02-21T00:48:15;97837.63;;;3.50;89.02
78890;BME280;68279;48.964;14.502;2024-02-21T00:50:41;97838.19;;;3.27;89.55
78890;BME280;68279;48.964;14.502;2024-02-21T00:53:06;97835.38;;;3.22;90.73
78890;BME280;68279;48.964;14.502;2024-02-21T00:55:32;97831.59;;;3.11;91.22
78890;BME280;68279;48.964;14.502;2024-02-21T00:57:58;97828.41;;;2.96;91.64
78890;BME280;68279;48.964;14.502;2024-02-21T01:00:23;97821.41;;;2.77;92.34
78890;BME280;68279;48.964;14.502;2024-02-21T01:02:49;97822.50;;;2.56;92.49
78890;BME280;68279;48.964;14.502;2024-02-21T01:05:14;97825.22;;;2.36;93.56
78890;BME280;68279;48.964;14.502;2024-02-21T01:07:40;97825.44;;;2.28;94.34
78890;BME280;68279;48.964;14.502;2024-02-21T01:10:06;97821.97;;;2.27;95.87
78890;BME280;68279;48.964;14.502;2024-02-21T01:12:32;97820.78;;;2.23;95.81
78890;BME280;68279;48.964;14.502;2024-02-21T01:14:57;97823.88;;;2.14;95.85
78890;BME280;68279;48.964;14.502;2024-02-21T01:17:23;97823.06;;;2.07;95.55
78890;BME280;68279;48.964;14.502;2024-02-21T01:19:49;97821.25;;;2.01;96.58
78890;BME280;68279;48.964;14.502;2024-02-21T01:22:14;97813.31;;;2.01;97.96
78890;BME280;68279;48.964;14.502;2024-02-21T01:24:41;97799.66;;;2.30;98.62
78890;BME280;68279;48.964;14.502;2024-02-21T01:27:06;97796.75;;;2.38;97.19
78890;BME280;68279;48.964;14.502;2024-02-21T01:29:32;97803.94;;;2.24;97.30
78890;BME280;68279;48.964;14.502;2024-02-21T01:31:57;97794.16;;;2.32;97.40
78890;BME280;68279;48.964;14.502;2024-02-21T01:34:23;97788.44;;;2.41;97.08
78890;BME280;68279;48.964;14.502;2024-02-21T01:36:49;97787.63;;;2.41;96.48
78890;BME280;68279;48.964;14.502;2024-02-21T01:39:15;97780.25;;;2.56;95.79
78890;BME280;68279;48.964;14.502;2024-02-21T01:41:40;97785.34;;;2.89;94.63
78890;BME280;68279;48.964;14.502;2024-02-21T01:44:06;97773.94;;;2.95;93.63
78890;BME280;68279;48.964;14.502;2024-02-21T01:46:31;97782.31;;;2.92;93.74
78890;BME280;68279;48.964;14.502;2024-02-21T01:48:57;97779.69;;;2.86;94.19
78890;BME280;68279;48.964;14.502;2024-02-21T01:51:26;97774.63;;;2.84;94.52
78890;BME280;68279;48.964;14.502;2024-02-21T01:53:53;97763.44;;;2.82;94.82
78890;BME280;68279;48.964;14.502;2024-02-21T01:56:21;97763.19;;;2.90;94.93
78890;BME280;68279;48.964;14.502;2024-02-21T01:58:48;97760.00;;;2.81;94.78
78890;BME280;68279;48.964;14.502;2024-02-21T02:01:14;97756.19;;;2.77;95.19
78890;BME280;68279;48.964;14.502;2024-02-21T02:03:40;97753.63;;;2.96;94.77
78890;BME280;68279;48.964;14.502;2024-02-21T02:06:06;97749.41;;;3.20;93.01
78890;BME280;68279;48.964;14.502;2024-02-21T02:08:32;97745.06;;;3.50;91.38
78890;BME280;68279;48.964;14.502;2024-02-21T02:10:58;97743.50;;;3.42;90.61
78890;BME280;68279;48.964;14.502;2024-02-21T02:13:24;97742.28;;;3.45;90.32
78890;BME280;68279;48.964;14.502;2024-02-21T02:15:50;97733.53;;;3.45;90.70
78890;BME280;68279;48.964;14.502;2024-02-21T02:18:17;97734.28;;;3.70;89.19
78890;BME280;68279;48.964;14.502;2024-02-21T02:20:44;97736.50;;;3.55;89.18
78890;BME280;68279;48.964;14.502;2024-02-21T02:23:12;97727.75;;;3.54;89.53
78890;BME280;68279;48.964;14.502;2024-02-21T02:25:38;97731.78;;;3.57;89.67
78890;BME280;68279;48.964;14.502;2024-02-21T02:28:05;97722.34;;;3.42;90.03
78890;BME280;68279;48.964;14.502;2024-02-21T02:30:35;97724.09;;;3.30;91.07
78890;BME280;68279;48.964;14.502;2024-02-21T02:33:04;97719.06;;;3.22;92.04
78890;BME280;68279;48.964;14.502;2024-02-21T02:35:30;97715.88;;;3.13;92.06
78890;BME280;68279;48.964;14.502;2024-02-21T02:37:55;97722.66;;;3.09;92.92
78890;BME280;68279;48.964;14.502;2024-02-21T02:40:21;97715.53;;;3.10;93.26
78890;BME280;68279;48.964;14.502;2024-02-21T02:42:47;97716.31;;;3.10;93.82
78890;BME280;68279;48.964;14.502;2024-02-21T02:45:15;97711.59;;;3.19;93.78
78890;BME280;68279;48.964;14.502;2024-02-21T02:47:40;97710.97;;;3.17;93.80
78890;BME280;68279;48.964;14.502;2024-02-21T02:50:07;97699.28;;;3.31;93.49
78890;BME280;68279;48.964;14.502;2024-02-21T02:52:32;97697.94;;;3.22;93.77
78890;BME280;68279;48.964;14.502;2024-02-21T02:54:58;97688.41;;;3.39;93.41
78890;BME280;68279;48.964;14.502;2024-02-21T02:57:24;97688.38;;;3.83;91.31
78890;BME280;68279;48.964;14.502;2024-02-21T02:59:50;97684.03;;;4.25;89.05
78890;BME280;68279;48.964;14.502;2024-02-21T03:02:17;97686.25;;;4.70;85.48
78890;BME280;68279;48.964;14.502;2024-02-21T03:04:43;97683.38;;;4.71;85.12
78890;BME280;68279;48.964;14.502;2024-02-21T03:07:09;97682.09;;;4.74;85.66
78890;BME280;68279;48.964;14.502;2024-02-21T03:09:38;97677.19;;;4.77;84.93
78890;BME280;68279;48.964;14.502;2024-02-21T03:12:04;97678.41;;;4.75;85.53
78890;BME280;68279;48.964;14.502;2024-02-21T03:14:30;97682.56;;;4.41;88.08
78890;BME280;68279;48.964;14.502;2024-02-21T03:16:56;97685.97;;;4.30;88.51
78890;BME280;68279;48.964;14.502;2024-02-21T03:19:22;97678.34;;;4.21;89.25
78890;BME280;68279;48.964;14.502;2024-02-21T03:21:48;97679.84;;;3.99;90.00
78890;BME280;68279;48.964;14.502;2024-02-21T03:24:16;97672.22;;;3.73;92.18
78890;BME280;68279;48.964;14.502;2024-02-21T03:26:42;97672.34;;;3.78;91.96
78890;BME280;68279;48.964;14.502;2024-02-21T03:29:07;97677.78;;;4.01;90.28
78890;BME280;68279;48.964;14.502;2024-02-21T03:31:34;97676.22;;;4.12;89.48
78890;BME280;68279;48.964;14.502;2024-02-21T03:34:00;97671.09;;;4.17;89.45
78890;BME280;68279;48.964;14.502;2024-02-21T03:36:26;97669.94;;;3.94;90.65
78890;BME280;68279;48.964;14.502;2024-02-21T03:38:51;97675.16;;;3.83;91.25
78890;BME280;68279;48.964;14.502;2024-02-21T03:41:17;97671.13;;;3.80;91.80
78890;BME280;68279;48.964;14.502;2024-02-21T03:43:42;97668.88;;;4.14;89.18
78890;BME280;68279;48.964;14.502;2024-02-21T03:46:08;97671.84;;;4.36;87.81
78890;BME280;68279;48.964;14.502;2024-02-21T03:48:34;97669.09;;;4.12;88.94
78890;BME280;68279;48.964;14.502;2024-02-21T03:50:59;97672.78;;;4.41;86.93
78890;BME280;68279;48.964;14.502;2024-02-21T03:53:25;97672.81;;;4.23;87.93
78890;BME280;68279;48.964;14.502;2024-02-21T03:55:50;97672.06;;;4.64;84.95
78890;BME280;68279;48.964;14.502;2024-02-21T03:58:16;97672.38;;;4.56;85.21
78890;BME280;68279;48.964;14.502;2024-02-21T04:00:42;97670.22;;;4.65;84.29
78890;BME280;68279;48.964;14.502;2024-02-21T04:03:07;97676.22;;;4.60;85.21
78890;BME280;68279;48.964;14.502;2024-02-21T04:05:33;97676.63;;;4.45;86.17
78890;BME280;68279;48.964;14.502;2024-02-21T04:07:59;97677.38;;;4.34;87.03
78890;BME280;68279;48.964;14.502;2024-02-21T04:10:24;97682.31;;;4.31;87.31
78890;BME280;68279;48.964;14.502;2024-02-21T04:12:50;97669.56;;;4.09;88.29
78890;BME280;68279;48.964;14.502;2024-02-21T04:15:16;97674.03;;;4.09;88.68
78890;BME280;68279;48.964;14.502;2024-02-21T04:17:42;97669.28;;;3.99;89.21
78890;BME280;68279;48.964;14.502;2024-02-21T04:20:14;97670.38;;;3.91;89.91
78890;BME280;68279;48.964;14.502;2024-02-21T04:22:40;97671.31;;;3.79;91.24
78890;BME280;68279;48.964;14.502;2024-02-21T04:25:05;97668.59;;;3.85;91.69
78890;BME280;68279;48.964;14.502;2024-02-21T04:27:37;97671.13;;;3.80;92.33
78890;BME280;68279;48.964;14.502;2024-02-21T04:30:04;97665.72;;;3.87;92.14
78890;BME280;68279;48.964;14.502;2024-02-21T04:32:29;97668.59;;;3.85;92.20
78890;BME280;68279;48.964;14.502;2024-02-21T04:34:55;97661.25;;;3.87;92.16
78890;BME280;68279;48.964;14.502;2024-02-21T04:37:21;97662.66;;;3.90;92.25
78890;BME280;68279;48.964;14.502;2024-02-21T04:39:48;97661.22;;;4.06;90.56
78890;BME280;68279;48.964;14.502;2024-02-21T04:42:14;97661.34;;;4.29;88.52
78890;BME280;68279;48.964;14.502;2024-02-21T04:44:40;97651.75;;;4.16;89.35
78890;BME280;68279;48.964;14.502;2024-02-21T04:47:06;97647.66;;;4.32;87.98
78890;BME280;68279;48.964;14.502;2024-02-21T04:49:32;97648.06;;;4.59;85.20
78890;BME280;68279;48.964;14.502;2024-02-21T04:51:57;97653.59;;;4.58;85.02
78890;BME280;68279;48.964;14.502;2024-02-21T04:54:23;97644.84;;;4.45;86.20
78890;BME280;68279;48.964;14.502;2024-02-21T04:56:49;97646.22;;;4.48;85.61
78890;BME280;68279;48.964;14.502;2024-02-21T04:59:14;97647.31;;;4.29;87.60
78890;BME280;68279;48.964;14.502;2024-02-21T05:01:40;97646.03;;;4.31;87.68
78890;BME280;68279;48.964;14.502;2024-02-21T05:04:05;97644.56;;;4.35;86.99
78890;BME280;68279;48.964;14.502;2024-02-21T05:06:31;97641.47;;;4.38;86.89
78890;BME280;68279;48.964;14.502;2024-02-21T05:08:57;97634.94;;;4.22;87.73
78890;BME280;68279;48.964;14.502;2024-02-21T05:11:23;97637.25;;;4.19;88.05
78890;BME280;68279;48.964;14.502;2024-02-21T05:13:50;97630.44;;;4.11;88.37
78890;BME280;68279;48.964;14.502;2024-02-21T05:16:15;97634.19;;;4.04;89.02
78890;BME280;68279;48.964;14.502;2024-02-21T05:18:41;97631.03;;;3.95;89.60
78890;BME280;68279;48.964;14.502;2024-02-21T05:21:08;97626.56;;;3.95;89.55
78890;BME280;68279;48.964;14.502;2024-02-21T05:23:33;97627.13;;;3.97;89.46
78890;BME280;68279;48.964;14.502;2024-02-21T05:25:59;97625.75;;;3.77;91.08
78890;BME280;68279;48.964;14.502;2024-02-21T05:28:24;97624.13;;;3.94;91.04
78890;BME280;68279;48.964;14.502;2024-02-21T05:30:50;97617.31;;;3.86;91.47
78890;BME280;68279;48.964;14.502;2024-02-21T05:33:16;97622.25;;;3.83;92.13
78890;BME280;68279;48.964;14.502;2024-02-21T05:35:47;97616.72;;;3.84;92.57
78890;BME280;68279;48.964;14.502;2024-02-21T05:38:13;97613.13;;;3.79;93.24
78890;BME280;68279;48.964;14.502;2024-02-21T05:40:39;97616.22;;;3.76;93.53
78890;BME280;68279;48.964;14.502;2024-02-21T05:43:04;97609.25;;;3.81;93.30
78890;BME280;68279;48.964;14.502;2024-02-21T05:45:30;97605.69;;;3.87;92.87
78890;BME280;68279;48.964;14.502;2024-02-21T05:47:56;97605.03;;;3.92;92.75
78890;BME280;68279;48.964;14.502;2024-02-21T05:50:22;97598.19;;;3.84;92.98
78890;BME280;68279;48.964;14.502;2024-02-21T05:52:51;97597.75;;;3.87;92.96
78890;BME280;68279;48.964;14.502;2024-02-21T05:55:17;97602.88;;;4.01;91.77
78890;BME280;68279;48.964;14.502;2024-02-21T05:57:43;97592.72;;;3.97;92.00
78890;BME280;68279;48.964;14.502;2024-02-21T06:00:10;97595.59;;;3.96;92.36
78890;BME280;68279;48.964;14.502;2024-02-21T06:02:36;97592.88;;;4.03;92.01
78890;BME280;68279;48.964;14.502;2024-02-21T06:05:01;97602.00;;;4.07;91.12
78890;BME280;68279;48.964;14.502;2024-02-21T06:07:27;97598.31;;;4.08;91.12
78890;BME280;68279;48.964;14.502;2024-02-21T06:09:52;97588.63;;;4.02;91.69
78890;BME280;68279;48.964;14.502;2024-02-21T06:12:18;97592.56;;;4.11;91.20
78890;BME280;68279;48.964;14.502;2024-02-21T06:14:44;97589.91;;;4.11;91.43
78890;BME280;68279;48.964;14.502;2024-02-21T06:17:10;97587.63;;;4.14;91.44
78890;BME280;68279;48.964;14.502;2024-02-21T06:19:36;97586.22;;;4.12;91.75
78890;BME280;68279;48.964;14.502;2024-02-21T06:22:01;97585.25;;;4.24;90.77
78890;BME280;68279;48.964;14.502;2024-02-21T06:24:27;97585.25;;;4.24;90.82
78890;BME280;68279;48.964;14.502;2024-02-21T06:26:53;97592.03;;;4.20;91.70
78890;BME280;68279;48.964;14.502;2024-02-21T06:29:19;97591.34;;;4.25;91.53
78890;BME280;68279;48.964;14.502;2024-02-21T06:31:44;97586.53;;;4.34;91.44
78890;BME280;68279;48.964;14.502;2024-02-21T06:34:10;97586.78;;;4.44;91.36
78890;BME280;68279;48.964;14.502;2024-02-21T06:36:35;97595.56;;;4.56;91.05
78890;BME280;68279;48.964;14.502;2024-02-21T06:39:01;97596.19;;;4.70;90.38
78890;BME280;68279;48.964;14.502;2024-02-21T06:41:27;97594.81;;;4.79;89.53
78890;BME280;68279;48.964;14.502;2024-02-21T06:43:52;97591.34;;;4.78;90.24
78890;BME280;68279;48.964;14.502;2024-02-21T06:46:27;97589.59;;;4.72;90.63
78890;BME280;68279;48.964;14.502;2024-02-21T06:48:59;97589.28;;;4.69;90.50
78890;BME280;68279;48.964;14.502;2024-02-21T06:51:26;97593.28;;;4.60;90.84
78890;BME280;68279;48.964;14.502;2024-02-21T06:53:52;97585.38;;;4.41;91.31
78890;BME280;68279;48.964;14.502;2024-02-21T06:56:18;97585.03;;;4.26;91.64
78890;BME280;68279;48.964;14.502;2024-02-21T06:58:44;97586.47;;;4.10;92.29
78890;BME280;68279;48.964;14.502;2024-02-21T07:01:10;97583.16;;;3.96;92.88
78890;BME280;68279;48.964;14.502;2024-02-21T07:03:36;97583.47;;;3.88;92.93
78890;BME280;68279;48.964;14.502;2024-02-21T07:06:02;97587.16;;;3.87;93.32
78890;BME280;68279;48.964;14.502;2024-02-21T07:08:28;97583.72;;;3.87;93.26
78890;BME280;68279;48.964;14.502;2024-02-21T07:10:54;97578.84;;;4.02;92.59
78890;BME280;68279;48.964;14.502;2024-02-21T07:13:20;97581.66;;;4.19;92.40
78890;BME280;68279;48.964;14.502;2024-02-21T07:15:48;97585.22;;;4.66;90.23
78890;BME280;68279;48.964;14.502;2024-02-21T07:18:13;97572.13;;;4.95;89.12
78890;BME280;68279;48.964;14.502;2024-02-21T07:20:39;97577.16;;;5.20;87.67
78890;BME280;68279;48.964;14.502;2024-02-21T07:23:07;97581.06;;;5.40;87.46
78890;BME280;68279;48.964;14.502;2024-02-21T07:25:33;97577.19;;;5.72;86.27
78890;BME280;68279;48.964;14.502;2024-02-21T07:27:58;97573.94;;;5.93;84.25
78890;BME280;68279;48.964;14.502;2024-02-21T07:30:24;97574.91;;;6.04;83.41
78890;BME280;68279;48.964;14.502;2024-02-21T07:32:50;97575.13;;;6.31;83.72
78890;BME280;68279;48.964;14.502;2024-02-21T07:35:17;97579.97;;;6.34;82.82
78890;BME280;68279;48.964;14.502;2024-02-21T07:37:43;97582.31;;;6.30;83.96
78890;BME280;68279;48.964;14.502;2024-02-21T07:40:15;97588.97;;;6.33;81.90
78890;BME280;68279;48.964;14.502;2024-02-21T07:42:42;97584.16;;;6.30;82.24
78890;BME280;68279;48.964;14.502;2024-02-21T07:45:08;97583.59;;;6.28;82.47
78890;BME280;68279;48.964;14.502;2024-02-21T07:47:34;97572.66;;;6.41;81.47
78890;BME280;68279;48.964;14.502;2024-02-21T07:50:01;97586.91;;;6.51;82.16
78890;BME280;68279;48.964;14.502;2024-02-21T07:52:27;97579.91;;;6.62;78.52
78890;BME280;68279;48.964;14.502;2024-02-21T07:54:53;97579.69;;;6.47;80.73
78890;BME280;68279;48.964;14.502;2024-02-21T07:57:18;97578.38;;;6.49;81.63
78890;BME280;68279;48.964;14.502;2024-02-21T07:59:44;97579.91;;;6.45;79.89
78890;BME280;68279;48.964;14.502;2024-02-21T08:02:10;97577.16;;;6.40;80.78
78890;BME280;68279;48.964;14.502;2024-02-21T08:04:35;97572.97;;;6.44;79.26
78890;BME280;68279;48.964;14.502;2024-02-21T08:07:02;97570.66;;;6.48;81.01
78890;BME280;68279;48.964;14.502;2024-02-21T08:09:29;97571.88;;;6.57;80.38
78890;BME280;68279;48.964;14.502;2024-02-21T08:11:55;97559.63;;;6.56;80.52
78890;BME280;68279;48.964;14.502;2024-02-21T08:14:21;97565.66;;;6.68;80.73
78890;BME280;68279;48.964;14.502;2024-02-21T08:16:47;97561.16;;;6.69;80.47
78890;BME280;68279;48.964;14.502;2024-02-21T08:19:13;97552.38;;;6.68;80.61
78890;BME280;68279;48.964;14.502;2024-02-21T08:21:38;97552.22;;;6.58;82.41
78890;BME280;68279;48.964;14.502;2024-02-21T08:24:04;97546.00;;;6.52;83.69
78890;BME280;68279;48.964;14.502;2024-02-21T08:26:30;97539.34;;;6.67;82.24
78890;BME280;68279;48.964;14.502;2024-02-21T08:28:57;97530.00;;;6.81;82.69
78890;BME280;68279;48.964;14.502;2024-02-21T08:31:26;97529.81;;;6.88;82.27
78890;BME280;68279;48.964;14.502;2024-02-21T08:34:00;97528.91;;;6.99;83.13
78890;BME280;68279;48.964;14.502;2024-02-21T08:36:30;97527.41;;;7.25;80.69
78890;BME280;68279;48.964;14.502;2024-02-21T08:38:56;97524.06;;;7.34;80.16
78890;BME280;68279;48.964;14.502;2024-02-21T08:41:23;97526.84;;;7.45;79.71
78890;BME280;68279;48.964;14.502;2024-02-21T08:43:50;97531.56;;;7.16;80.30
78890;BME280;68279;48.964;14.502;2024-02-21T08:46:16;97531.09;;;7.02;81.54
78890;BME280;68279;48.964;14.502;2024-02-21T08:48:43;97529.44;;;7.18;80.33
78890;BME280;68279;48.964;14.502;2024-02-21T08:51:08;97530.94;;;7.30;81.04
78890;BME280;68279;48.964;14.502;2024-02-21T08:53:34;97521.09;;;7.31;79.14
78890;BME280;68279;48.964;14.502;2024-02-21T08:56:00;97514.09;;;7.47;79.78
78890;BME280;68279;48.964;14.502;2024-02-21T08:58:25;97521.78;;;7.65;79.98
78890;BME280;68279;48.964;14.502;2024-02-21T09:00:52;97527.34;;;7.63;78.67
78890;BME280;68279;48.964;14.502;2024-02-21T09:03:17;97516.03;;;7.51;78.39
78890;BME280;68279;48.964;14.502;2024-02-21T09:05:45;97507.19;;;7.46;78.66
78890;BME280;68279;48.964;14.502;2024-02-21T09:08:11;97512.06;;;7.54;77.62
78890;BME280;68279;48.964;14.502;2024-02-21T09:10:37;97509.16;;;7.55;75.77
78890;BME280;68279;48.964;14.502;2024-02-21T09:13:03;97517.06;;;7.72;74.70
78890;BME280;68279;48.964;14.502;2024-02-21T09:15:29;97514.50;;;7.82;77.12
78890;BME280;68279;48.964;14.502;2024-02-21T09:17:54;97518.41;;;7.75;77.17
78890;BME280;68279;48.964;14.502;2024-02-21T09:20:20;97513.91;;;7.75;76.71
78890;BME280;68279;48.964;14.502;2024-02-21T09:22:46;97522.75;;;7.81;78.00
78890;BME280;68279;48.964;14.502;2024-02-21T09:25:11;97514.78;;;7.86;77.25
78890;BME280;68279;48.964;14.502;2024-02-21T09:27:39;97513.91;;;7.75;76.40
78890;BME280;68279;48.964;14.502;2024-02-21T09:30:06;97512.03;;;7.76;75.74
78890;BME280;68279;48.964;14.502;2024-02-21T09:32:32;97512.34;;;7.79;76.28
78890;BME280;68279;48.964;14.502;2024-02-21T09:35:00;97523.09;;;7.89;75.95
78890;BME280;68279;48.964;14.502;2024-02-21T09:37:25;97526.75;;;7.83;77.10
78890;BME280;68279;48.964;14.502;2024-02-21T09:39:51;97529.06;;;7.75;76.65
78890;BME280;68279;48.964;14.502;2024-02-21T09:42:20;97531.00;;;7.79;77.69
78890;BME280;68279;48.964;14.502;2024-02-21T09:44:46;97532.34;;;7.82;75.96
78890;BME280;68279;48.964;14.502;2024-02-21T09:47:24;97530.22;;;7.84;75.35
78890;BME280;68279;48.964;14.502;2024-02-21T09:49:57;97533.25;;;8.19;73.87
78890;BME280;68279;48.964;14.502;2024-02-21T09:52:24;97521.84;;;8.51;74.86
78890;BME280;68279;48.964;14.502;2024-02-21T09:54:51;97520.47;;;8.80;72.60
78890;BME280;68279;48.964;14.502;2024-02-21T09:57:18;97514.72;;;8.99;70.47
78890;BME280;68279;48.964;14.502;2024-02-21T09:59:44;97515.81;;;9.60;71.80
78890;BME280;68279;48.964;14.502;2024-02-21T10:02:11;97515.22;;;10.26;69.62
78890;BME280;68279;48.964;14.502;2024-02-21T10:04:39;97520.28;;;10.84;66.92
78890;BME280;68279;48.964;14.502;2024-02-21T10:07:05;97510.38;;;10.89;66.26
78890;BME280;68279;48.964;14.502;2024-02-21T10:09:31;97507.44;;;10.75;67.55
78890;BME280;68279;48.964;14.502;2024-02-21T10:12:08;97494.91;;;10.45;61.98
78890;BME280;68279;48.964;14.502;2024-02-21T10:14:34;97489.81;;;10.44;64.01
78890;BME280;68279;48.964;14.502;2024-02-21T10:17:00;97484.72;;;10.78;59.61
78890;BME280;68279;48.964;14.502;2024-02-21T10:19:26;97475.88;;;10.77;66.67
78890;BME280;68279;48.964;14.502;2024-02-21T10:22:02;97467.78;;;11.03;65.87
78890;BME280;68279;48.964;14.502;2024-02-21T10:24:30;97466.53;;;10.65;61.97
78890;BME280;68279;48.964;14.502;2024-02-21T10:27:06;97477.25;;;10.44;62.67
78890;BME280;68279;48.964;14.502;2024-02-21T10:29:36;97467.84;;;10.06;61.67
78890;BME280;68279;48.964;14.502;2024-02-21T10:32:08;97468.59;;;9.76;62.98
78890;BME280;68279;48.964;14.502;2024-02-21T10:34:35;97458.69;;;9.72;62.11
78890;BME280;68279;48.964;14.502;2024-02-21T10:37:07;97453.31;;;9.61;61.65
78890;BME280;68279;48.964;14.502;2024-02-21T10:39:34;97437.38;;;9.92;63.09
78890;BME280;68279;48.964;14.502;2024-02-21T10:42:02;97429.91;;;10.25;62.68
78890;BME280;68279;48.964;14.502;2024-02-21T10:44:32;97440.06;;;10.23;62.22
78890;BME280;68279;48.964;14.502;2024-02-21T10:46:59;97440.63;;;10.45;60.57
78890;BME280;68279;48.964;14.502;2024-02-21T10:49:29;97442.50;;;10.34;61.18
78890;BME280;68279;48.964;14.502;2024-02-21T10:57:13;97434.69;;;10.73;61.67
78890;BME280;68279;48.964;14.502;2024-02-21T10:59:40;97415.63;;;10.95;57.91
78890;BME280;68279;48.964;14.502;2024-02-21T11:02:06;97405.50;;;11.47;59.39
78890;BME280;68279;48.964;14.502;2024-02-21T11:04:33;97400.13;;;11.52;56.50
78890;BME280;68279;48.964;14.502;2024-02-21T11:07:05;97397.16;;;11.53;58.02
78890;BME280;68279;48.964;14.502;2024-02-21T11:09:32;97397.81;;;11.30;57.32
78890;BME280;68279;48.964;14.502;2024-02-21T11:12:02;97397.88;;;11.69;57.53
78890;BME280;68279;48.964;14.502;2024-02-21T11:14:29;97385.41;;;12.57;57.43
78890;BME280;68279;48.964;14.502;2024-02-21T11:16:58;97385.53;;;12.41;55.19
78890;BME280;68279;48.964;14.502;2024-02-21T11:21:50;97394.50;;;11.93;54.80
78890;BME280;68279;48.964;14.502;2024-02-21T11:24:34;97385.34;;;12.04;54.88
78890;BME280;68279;48.964;14.502;2024-02-21T11:27:12;97389.19;;;12.51;53.67
78890;BME280;68279;48.964;14.502;2024-02-21T11:29:48;97394.34;;;11.84;55.11
78890;BME280;68279;48.964;14.502;2024-02-21T11:32:17;97389.34;;;11.62;53.78
78890;BME280;68279;48.964;14.502;2024-02-21T11:34:57;97384.34;;;12.24;55.39
78890;BME280;68279;48.964;14.502;2024-02-21T11:37:27;97383.72;;;11.14;56.35
78890;BME280;68279;48.964;14.502;2024-02-21T11:39:54;97388.94;;;11.40;53.56
78890;BME280;68279;48.964;14.502;2024-02-21T11:42:20;97387.00;;;11.50;55.57
78890;BME280;68279;48.964;14.502;2024-02-21T11:44:46;97381.09;;;11.53;55.14
78890;BME280;68279;48.964;14.502;2024-02-21T11:47:11;97387.09;;;11.84;52.89
78890;BME280;68279;48.964;14.502;2024-02-21T11:49:45;97375.44;;;11.60;55.23
78890;BME280;68279;48.964;14.502;2024-02-21T11:52:29;97375.06;;;11.27;53.92
78890;BME280;68279;48.964;14.502;2024-02-21T11:54:54;97364.81;;;11.45;54.25
78890;BME280;68279;48.964;14.502;2024-02-21T11:57:23;97355.00;;;11.69;54.72
78890;BME280;68279;48.964;14.502;2024-02-21T11:59:48;97341.34;;;12.34;53.52
78890;BME280;68279;48.964;14.502;2024-02-21T12:02:15;97339.44;;;11.71;56.04
78890;BME280;68279;48.964;14.502;2024-02-21T12:04:42;97336.84;;;12.29;54.40
78890;BME280;68279;48.964;14.502;2024-02-21T12:07:09;97331.53;;;11.95;53.50
78890;BME280;68279;48.964;14.502;2024-02-21T12:09:34;97313.69;;;12.62;54.62
78890;BME280;68279;48.964;14.502;2024-02-21T12:12:02;97311.09;;;13.19;52.86
78890;BME280;68279;48.964;14.502;2024-02-21T12:14:32;97305.31;;;12.88;52.04
78890;BME280;68279;48.964;14.502;2024-02-21T12:16:59;97289.19;;;12.69;52.22
78890;BME280;68279;48.964;14.502;2024-02-21T12:19:29;97284.00;;;12.30;53.76
78890;BME280;68279;48.964;14.502;2024-02-21T12:21:55;97292.34;;;12.95;50.56
78890;BME280;68279;48.964;14.502;2024-02-21T12:24:24;97287.63;;;12.87;50.98
78890;BME280;68279;48.964;14.502;2024-02-21T12:26:51;97278.78;;;12.86;51.45
78890;BME280;68279;48.964;14.502;2024-02-21T12:29:18;97287.31;;;13.31;50.88
78890;BME280;68279;48.964;14.502;2024-02-21T12:31:43;97284.53;;;13.55;51.36
78890;BME280;68279;48.964;14.502;2024-02-21T12:34:09;97289.72;;;13.84;50.22
78890;BME280;68279;48.964;14.502;2024-02-21T12:36:41;97287.09;;;12.66;51.84
78890;BME280;68279;48.964;14.502;2024-02-21T12:39:08;97275.66;;;12.07;52.07
78890;BME280;68279;48.964;14.502;2024-02-21T12:41:35;97279.25;;;12.69;50.53
78890;BME280;68279;48.964;14.502;2024-02-21T12:44:06;97276.13;;;13.24;46.64
78890;BME280;68279;48.964;14.502;2024-02-21T12:46:35;97270.47;;;13.44;48.75
78890;BME280;68279;48.964;14.502;2024-02-21T12:49:01;97263.97;;;14.10;45.16
78890;BME280;68279;48.964;14.502;2024-02-21T12:51:27;97265.44;;;14.49;44.85
78890;BME280;68279;48.964;14.502;2024-02-21T12:53:53;97246.03;;;13.92;46.97
78890;BME280;68279;48.964;14.502;2024-02-21T12:56:18;97241.19;;;13.62;46.98
78890;BME280;68279;48.964;14.502;2024-02-21T12:58:44;97238.78;;;12.66;49.31
78890;BME280;68279;48.964;14.502;2024-02-21T13:01:10;97227.09;;;13.83;48.44
78890;BME280;68279;48.964;14.502;2024-02-21T13:03:35;97225.13;;;13.89;48.48